Time;durP1;ratioP1;P1;durP2;ratioP2;P2;SDS_P1;SDS_P2;PMS_P1;PMS_P2;Temp;Humidity;BMP_temperature;BMP_pressure;BME280_temperature;BME280_humidity;BME280_pressure;Samples;Min_cycle;Max_cycle;Signal;HPM_P1;HPM_P2
2024/03/18 00:02:11;;;;;;;8.00;4.13;;;11.60;99.90;;;;;;4994825;28;20026;-77
2024/03/18 00:04:39;;;;;;;10.63;4.75;;;11.10;99.90;;;;;;4996405;28;20018;-77
2024/03/18 00:07:05;;;;;;;8.73;4.18;;;11.10;99.90;;;;;;4997591;28;20054;-77
2024/03/18 00:09:30;;;;;;;8.02;5.03;;;11.20;99.90;;;;;;4996106;28;20069;-77
2024/03/18 00:11:56;;;;;;;9.52;5.32;;;11.20;99.90;;;;;;4995876;28;20022;-77
2024/03/18 00:14:22;;;;;;;10.63;5.88;;;11.10;99.90;;;;;;4997122;28;20030;-77
2024/03/18 00:16:47;;;;;;;10.40;5.53;;;11.20;99.90;;;;;;4995938;28;20117;-77
2024/03/18 00:19:14;;;;;;;9.93;5.82;;;11.40;99.90;;;;;;4997303;28;20038;-77
2024/03/18 00:21:39;;;;;;;10.63;6.28;;;11.10;99.90;;;;;;4996950;28;20022;-77
2024/03/18 00:24:08;;;;;;;14.02;7.20;;;11.10;99.90;;;;;;4996062;28;20358;-77
2024/03/18 00:26:33;;;;;;;12.13;6.47;;;11.00;99.90;;;;;;4995740;28;20025;-77
2024/03/18 00:28:59;;;;;;;10.23;6.05;;;11.00;99.90;;;;;;4997463;28;20398;-77
2024/03/18 00:31:25;;;;;;;10.23;6.20;;;11.00;99.90;;;;;;4997014;28;20034;-77
2024/03/18 00:33:50;;;;;;;10.00;5.90;;;10.90;99.90;;;;;;4997035;28;20033;-77
2024/03/18 00:36:16;;;;;;;13.23;6.32;;;10.90;99.90;;;;;;4997002;28;20446;-77
2024/03/18 00:38:42;;;;;;;10.40;6.43;;;10.90;99.90;;;;;;4996746;28;20030;-77
2024/03/18 00:43:52;;;;;;;12.02;6.50;;;10.90;99.90;;;;;;4997042;28;20117;-77
2024/03/18 00:46:18;;;;;;;10.45;5.97;;;10.90;99.90;;;;;;4995935;28;20026;-79
2024/03/18 00:48:44;;;;;;;10.98;6.55;;;10.90;99.90;;;;;;4998117;28;20386;-78
2024/03/18 00:51:10;;;;;;;11.73;6.65;;;10.90;99.90;;;;;;4995490;28;20018;-79
2024/03/18 00:53:35;;;;;;;16.63;7.03;;;10.90;99.90;;;;;;4997733;28;20029;-79
2024/03/18 00:56:07;;;;;;;13.00;7.40;;;10.90;99.90;;;;;;4996979;28;20030;-78
2024/03/18 00:58:34;;;;;;;15.23;7.22;;;10.80;99.90;;;;;;4996343;28;20023;-78
2024/03/18 01:01:00;;;;;;;14.20;6.85;;;10.80;99.90;;;;;;4996797;28;20109;-79
2024/03/18 01:03:27;;;;;;;13.88;6.95;;;11.20;99.90;;;;;;4997897;28;20524;-79
2024/03/18 01:05:52;;;;;;;14.48;7.53;;;10.80;99.90;;;;;;4995644;28;20026;-79
2024/03/18 01:08:18;;;;;;;12.45;7.32;;;10.80;99.90;;;;;;4997732;28;20048;-79
2024/03/18 01:10:44;;;;;;;17.58;7.40;;;10.70;99.90;;;;;;4995393;28;20026;-78
2024/03/18 01:13:11;;;;;;;11.68;6.63;;;10.60;99.90;;;;;;4997398;28;20030;-78
2024/03/18 01:15:40;;;;;;;14.95;7.38;;;10.60;99.90;;;;;;4996779;28;20029;-79
2024/03/18 01:31:33;;;;;;;16.13;8.38;;;10.40;99.90;;;;;;4998027;28;20088;-79
2024/03/18 01:34:01;;;;;;;14.25;7.38;;;10.30;99.90;;;;;;4998779;28;20027;-79
2024/03/18 01:36:27;;;;;;;15.88;7.45;;;10.30;99.90;;;;;;4995210;28;20022;-79
2024/03/18 01:38:53;;;;;;;16.27;8.27;;;10.30;99.90;;;;;;4995674;28;20070;-78
2024/03/18 01:41:21;;;;;;;17.08;8.80;;;10.30;99.90;;;;;;4995495;28;20102;-78
2024/03/18 01:43:47;;;;;;;16.85;8.50;;;10.30;99.90;;;;;;4997662;28;20045;-79
2024/03/18 01:46:16;;;;;;;13.65;7.10;;;10.30;99.90;;;;;;4995058;28;20485;-78
2024/03/18 01:48:42;;;;;;;;;;;10.30;99.90;;;;;;4995943;28;20022;-78
2024/03/18 01:51:07;;;;;;;17.85;8.38;;;10.30;99.90;;;;;;4995805;28;19929;-79
2024/03/18 01:53:33;;;;;;;16.95;8.35;;;10.20;99.90;;;;;;4996012;28;20018;-78
2024/03/18 01:56:00;;;;;;;16.83;8.75;;;10.20;99.90;;;;;;4995777;28;20022;-79
2024/03/18 01:58:26;;;;;;;16.55;9.00;;;10.20;99.90;;;;;;4995599;28;20020;-79
2024/03/18 02:00:51;;;;;;;16.70;8.65;;;10.30;99.90;;;;;;4996302;28;20109;-78
2024/03/18 02:03:23;;;;;;;21.27;8.40;;;10.30;99.90;;;;;;4995495;28;20036;-78
2024/03/18 02:05:49;;;;;;;19.50;8.95;;;10.20;99.90;;;;;;4997166;28;20545;-78
2024/03/18 02:08:14;;;;;;;17.17;8.95;;;10.30;99.90;;;;;;4995845;28;20022;-79
2024/03/18 02:10:41;;;;;;;15.18;8.05;;;10.20;99.90;;;;;;4995011;28;20022;-78
2024/03/18 02:13:06;;;;;;;17.73;9.60;;;10.20;99.90;;;;;;4995469;28;20034;-78
2024/03/18 02:15:32;;;;;;;21.15;9.80;;;10.20;99.90;;;;;;4995190;28;20481;-78
2024/03/18 02:17:59;;;;;;;21.55;10.30;;;10.30;99.90;;;;;;4996910;28;20478;-78
2024/03/18 02:20:25;;;;;;;21.27;10.05;;;10.30;99.90;;;;;;4994524;28;20026;-78
2024/03/18 02:22:52;;;;;;;18.17;9.02;;;10.30;99.90;;;;;;4996321;28;20037;-78
2024/03/18 02:25:18;;;;;;;20.33;9.65;;;10.30;99.90;;;;;;4994434;28;20026;-77
2024/03/18 02:27:45;;;;;;;33.97;10.02;;;10.30;99.90;;;;;;4993426;28;20064;-76
2024/03/18 02:30:11;;;;;;;23.70;10.65;;;10.40;99.90;;;;;;4994131;28;20098;-76
2024/03/18 02:32:41;;;;;;;22.75;10.55;;;10.30;99.90;;;;;;4993696;28;20038;-76
2024/03/18 02:35:08;;;;;;;21.08;10.07;;;10.40;99.90;;;;;;4995294;28;20025;-77
2024/03/18 02:37:34;;;;;;;25.70;11.38;;;10.40;99.90;;;;;;4993787;28;20041;-76
2024/03/18 02:40:01;;;;;;;24.50;11.48;;;10.50;99.90;;;;;;4995413;28;20022;-76
2024/03/18 02:42:26;;;;;;;22.25;10.50;;;10.50;99.90;;;;;;4994739;28;20397;-77
2024/03/18 02:44:52;;;;;;;24.55;11.10;;;10.50;99.90;;;;;;4994799;28;20098;-77
2024/03/18 02:47:17;;;;;;;28.40;11.68;;;10.50;99.90;;;;;;4995617;28;20061;-77
2024/03/18 02:49:43;;;;;;;23.30;10.98;;;10.60;99.90;;;;;;4994848;28;20105;-76
2024/03/18 02:52:09;;;;;;;25.83;11.70;;;10.80;99.90;;;;;;4994686;28;20026;-77
2024/03/18 02:54:34;;;;;;;28.33;12.57;;;10.60;99.90;;;;;;4994310;28;20030;-77
2024/03/18 02:57:00;;;;;;;26.58;11.43;;;10.60;99.90;;;;;;4994986;28;20026;-77
2024/03/18 02:59:26;;;;;;;25.35;11.18;;;10.70;99.90;;;;;;4995376;28;20508;-77
2024/03/18 03:01:51;;;;;;;24.98;11.82;;;10.70;99.90;;;;;;4994932;28;20022;-77
2024/03/18 03:04:17;;;;;;;27.02;11.02;;;10.70;99.90;;;;;;4993862;28;20026;-77
2024/03/18 03:06:43;;;;;;;26.23;12.05;;;10.70;99.90;;;;;;4995098;28;20026;-77
2024/03/18 03:09:15;;;;;;;25.10;11.48;;;11.10;99.90;;;;;;4995407;28;20077;-77
2024/03/18 03:11:41;;;;;;;24.33;10.75;;;10.70;99.90;;;;;;4994401;28;20034;-77
2024/03/18 03:14:08;;;;;;;25.20;11.90;;;10.70;99.90;;;;;;4994733;28;20087;-77
2024/03/18 03:16:34;;;;;;;30.13;11.35;;;10.70;99.90;;;;;;4993950;28;20076;-77
2024/03/18 03:18:59;;;;;;;28.48;12.52;;;10.80;99.90;;;;;;4995854;28;20034;-77
2024/03/18 03:21:25;;;;;;;27.67;11.55;;;10.70;99.90;;;;;;4993507;28;20165;-77
2024/03/18 03:23:51;;;;;;;29.20;12.18;;;10.70;99.90;;;;;;4995304;28;20102;-77
2024/03/18 03:26:18;;;;;;;35.42;13.05;;;10.70;99.90;;;;;;4995661;28;20497;-77
2024/03/18 03:28:44;;;;;;;28.40;11.98;;;10.70;99.90;;;;;;4994619;28;20014;-77
2024/03/18 03:31:09;;;;;;;35.00;14.10;;;10.80;99.90;;;;;;4994357;28;20038;-77
2024/03/18 03:33:37;;;;;;;29.10;12.25;;;10.80;99.90;;;;;;4995155;28;20022;-77
2024/03/18 03:36:04;;;;;;;34.63;13.37;;;10.80;99.90;;;;;;4993671;28;20023;-77
2024/03/18 03:38:29;;;;;;;29.27;12.63;;;10.80;99.90;;;;;;4998001;28;20272;-77
2024/03/18 03:40:55;;;;;;;27.05;12.52;;;10.80;99.90;;;;;;4998740;28;20386;-77
2024/03/18 03:43:22;;;;;;;29.20;12.13;;;10.70;99.90;;;;;;4997294;28;20030;-77
2024/03/18 03:45:55;;;;;;;30.58;12.57;;;10.80;99.90;;;;;;4998896;28;20038;-77
2024/03/18 03:48:22;;;;;;;34.97;12.95;;;10.80;99.90;;;;;;4996867;28;20466;-77
2024/03/18 03:50:48;;;;;;;27.42;11.73;;;10.80;99.90;;;;;;4997327;28;20018;-77
2024/03/18 03:53:14;;;;;;;30.70;11.55;;;10.80;99.90;;;;;;4998520;28;20482;-77
2024/03/18 03:55:40;;;;;;;26.15;11.48;;;10.70;99.90;;;;;;4996965;28;20026;-77
2024/03/18 03:58:05;;;;;;;29.20;11.70;;;10.80;99.90;;;;;;4997752;28;20030;-77
2024/03/18 04:00:34;;;;;;;33.92;12.70;;;10.80;99.90;;;;;;4997694;28;20034;-77
2024/03/18 04:02:59;;;;;;;27.60;11.82;;;10.80;99.90;;;;;;4998732;28;20018;-77
2024/03/18 04:05:25;;;;;;;27.30;11.68;;;10.80;99.90;;;;;;4996542;28;20029;-77
2024/03/18 04:07:51;;;;;;;30.67;11.32;;;10.80;99.90;;;;;;4996580;28;20022;-77
2024/03/18 04:10:16;;;;;;;30.67;12.00;;;10.80;99.90;;;;;;4997872;28;20029;-77
2024/03/18 04:12:43;;;;;;;29.60;10.77;;;10.80;99.90;;;;;;4997273;28;20045;-76
2024/03/18 04:15:09;;;;;;;28.63;11.45;;;10.80;99.90;;;;;;4997146;28;20398;-77
2024/03/18 04:17:34;;;;;;;26.73;10.90;;;10.80;99.90;;;;;;4996000;28;20030;-77
2024/03/18 04:20:00;;;;;;;25.95;10.77;;;10.80;99.90;;;;;;4996566;28;20034;-77
2024/03/18 04:22:26;;;;;;;26.65;11.52;;;10.80;99.90;;;;;;4997265;28;20573;-77
2024/03/18 04:24:52;;;;;;;25.23;10.88;;;10.80;99.90;;;;;;4996394;28;20084;-76
2024/03/18 04:27:18;;;;;;;29.55;11.43;;;10.80;99.90;;;;;;4997697;28;20022;-77
2024/03/18 04:29:43;;;;;;;27.75;10.77;;;10.80;99.90;;;;;;4997038;28;20022;-76
2024/03/18 04:32:10;;;;;;;28.92;11.18;;;10.80;99.90;;;;;;4995853;28;20134;-77
2024/03/18 04:34:36;;;;;;;24.52;10.93;;;10.70;99.90;;;;;;4995879;28;20034;-77
2024/03/18 04:37:02;;;;;;;30.20;12.20;;;10.80;99.90;;;;;;4997124;28;20030;-76
2024/03/18 04:39:28;;;;;;;27.77;11.13;;;10.70;99.90;;;;;;4995708;28;20057;-77
2024/03/18 04:41:54;;;;;;;28.08;12.00;;;10.80;99.90;;;;;;4995518;28;20022;-77
2024/03/18 04:44:20;;;;;;;28.67;11.07;;;10.80;99.90;;;;;;4996755;28;20430;-76
2024/03/18 04:46:45;;;;;;;31.75;10.60;;;10.80;99.90;;;;;;4996550;28;20049;-77
2024/03/18 04:49:11;;;;;;;25.88;11.73;;;10.80;99.90;;;;;;4995794;28;20023;-76
2024/03/18 04:51:36;;;;;;;30.40;11.57;;;10.70;99.90;;;;;;4995574;28;20029;-77
2024/03/18 04:54:02;;;;;;;23.90;10.23;;;10.80;99.90;;;;;;4996497;28;20049;-75
2024/03/18 04:56:31;;;;;;;30.80;9.98;;;10.80;99.90;;;;;;4997134;28;20026;-76
2024/03/18 04:58:59;;;;;;;25.58;10.93;;;10.70;99.90;;;;;;4996347;28;20054;-76
2024/03/18 05:01:25;;;;;;;22.35;9.70;;;10.70;99.90;;;;;;4996267;28;20069;-76
2024/03/18 05:03:50;;;;;;;27.48;10.38;;;10.70;99.90;;;;;;4994795;28;20026;-76
2024/03/18 05:06:16;;;;;;;24.25;9.73;;;10.70;99.90;;;;;;4996395;28;20057;-76
2024/03/18 05:08:43;;;;;;;28.60;9.80;;;10.70;99.90;;;;;;4996213;28;20019;-76
2024/03/18 05:11:09;;;;;;;25.77;9.90;;;10.70;99.90;;;;;;4994755;28;20026;-75
2024/03/18 05:13:34;;;;;;;25.45;10.45;;;10.70;99.90;;;;;;4996009;28;20486;-75
2024/03/18 05:16:00;;;;;;;24.00;9.30;;;10.70;99.90;;;;;;4995983;28;20045;-76
2024/03/18 05:18:26;;;;;;;24.15;10.57;;;10.80;99.90;;;;;;4994985;28;20049;-76
2024/03/18 05:20:51;;;;;;;26.15;10.30;;;10.70;99.90;;;;;;4994610;28;20115;-75
2024/03/18 05:23:17;;;;;;;24.70;11.15;;;10.70;99.90;;;;;;4995895;28;20081;-75
2024/03/18 05:25:46;;;;;;;27.85;10.30;;;10.70;99.90;;;;;;4996076;28;20098;-75
2024/03/18 05:28:12;;;;;;;25.92;10.10;;;;;;;;;;4994669;28;20117;-75
2024/03/18 05:30:38;;;;;;;25.30;9.48;;;10.70;99.90;;;;;;4994320;28;20069;-76
2024/03/18 05:33:06;;;;;;;23.42;9.90;;;10.70;99.90;;;;;;4994592;28;20034;-75
2024/03/18 05:35:32;;;;;;;22.73;10.27;;;10.60;99.90;;;;;;4994439;28;20046;-75
2024/03/18 05:37:58;;;;;;;24.40;9.95;;;10.60;99.90;;;;;;4994446;28;20645;-75
2024/03/18 05:40:24;;;;;;;31.25;10.65;;;10.60;99.90;;;;;;4994175;28;20027;-76
2024/03/18 05:42:50;;;;;;;24.40;9.75;;;10.70;99.90;;;;;;4995417;28;20466;-75
2024/03/18 05:45:15;;;;;;;26.08;9.45;;;10.70;99.90;;;;;;4994372;28;20078;-75
2024/03/18 05:47:41;;;;;;;24.50;10.20;;;10.70;99.90;;;;;;4995530;28;20030;-76
2024/03/18 05:50:07;;;;;;;27.65;9.15;;;10.70;99.90;;;;;;4995409;28;20018;-76
2024/03/18 05:52:33;;;;;;;21.23;8.93;;;10.60;99.90;;;;;;4995654;28;20034;-76
2024/03/18 05:54:58;;;;;;;23.08;9.77;;;10.60;99.90;;;;;;4994088;28;20470;-76
2024/03/18 05:57:24;;;;;;;33.08;10.18;;;10.60;99.90;;;;;;4995203;28;20076;-76
2024/03/18 05:59:50;;;;;;;25.25;10.02;;;10.60;99.90;;;;;;4994766;28;20022;-76
2024/03/18 06:02:16;;;;;;;24.75;9.70;;;10.60;99.90;;;;;;4995211;28;20474;-75
2024/03/18 06:04:42;;;;;;;26.17;9.23;;;10.60;99.90;;;;;;4994013;28;20479;-75
2024/03/18 06:07:07;;;;;;;21.20;9.20;;;10.60;99.90;;;;;;4995848;28;20023;-76
2024/03/18 06:09:33;;;;;;;23.95;9.75;;;10.60;99.90;;;;;;4994016;28;20022;-76
2024/03/18 06:11:59;;;;;;;18.50;8.80;;;10.60;99.90;;;;;;4994750;28;20446;-76
2024/03/18 06:14:24;;;;;;;29.95;10.50;;;10.50;99.90;;;;;;4994357;28;20026;-77
2024/03/18 06:16:50;;;;;;;22.95;9.48;;;10.60;99.90;;;;;;4995284;28;20057;-76
2024/03/18 06:19:17;;;;;;;24.70;9.52;;;10.60;99.90;;;;;;4993811;28;20117;-76
2024/03/18 06:21:45;;;;;;;22.42;10.05;;;10.60;99.90;;;;;;4993850;28;20057;-76
2024/03/18 06:24:22;;;;;;;23.20;10.18;;;10.60;99.90;;;;;;4994141;28;20042;-76
2024/03/18 06:26:50;;;;;;;22.15;9.27;;;10.60;99.90;;;;;;4993620;28;20026;-76
2024/03/18 06:29:16;;;;;;;22.60;8.57;;;10.60;99.90;;;;;;4993788;28;20513;-76
2024/03/18 06:31:42;;;;;;;20.35;9.15;;;10.60;99.90;;;;;;4993450;28;20018;-77
2024/03/18 06:34:07;;;;;;;28.13;10.00;;;10.60;99.90;;;;;;4993407;28;20014;-77
2024/03/18 06:36:34;;;;;;;23.60;9.38;;;10.60;99.90;;;;;;4995300;28;20044;-76
2024/03/18 06:39:00;;;;;;;26.50;10.68;;;10.60;99.90;;;;;;4995017;28;20045;-76
2024/03/18 06:41:26;;;;;;;22.42;8.63;;;10.70;99.90;;;;;;4993529;28;20105;-77
2024/03/18 06:43:51;;;;;;;20.58;9.77;;;10.70;99.90;;;;;;4997721;28;20533;-78
2024/03/18 06:46:17;;;;;;;23.80;9.95;;;10.70;99.90;;;;;;4994377;28;20196;-76
2024/03/18 06:48:43;;;;;;;27.48;9.23;;;10.70;99.90;;;;;;4993422;28;20494;-76
2024/03/18 06:51:14;;;;;;;25.65;9.77;;;10.70;99.90;;;;;;4993104;28;20022;-76
2024/03/18 06:53:41;;;;;;;24.08;8.95;;;10.70;99.90;;;;;;4994815;28;20030;-76
2024/03/18 06:56:09;;;;;;;24.42;8.90;;;10.80;99.90;;;;;;4993288;28;20125;-76
2024/03/18 06:58:36;;;;;;;17.58;8.30;;;10.80;99.90;;;;;;4993205;28;20026;-76
2024/03/18 07:01:02;;;;;;;23.77;9.25;;;10.80;99.90;;;;;;4994019;28;20096;-76
2024/03/18 07:03:29;;;;;;;23.27;8.38;;;10.80;99.90;;;;;;4993235;28;20023;-76
2024/03/18 07:05:54;;;;;;;26.40;9.68;;;10.90;99.90;;;;;;4993112;28;20041;-77
2024/03/18 07:08:20;;;;;;;25.83;10.23;;;10.90;99.90;;;;;;4992932;28;20030;-76
2024/03/18 07:10:47;;;;;;;22.00;9.02;;;11.00;99.90;;;;;;4992594;28;20065;-76
2024/03/18 07:13:12;;;;;;;28.42;8.98;;;11.00;99.90;;;;;;4993883;28;20026;-76
2024/03/18 07:15:38;;;;;;;21.73;8.63;;;11.00;99.90;;;;;;4993849;28;20393;-77
2024/03/18 07:18:04;;;;;;;18.65;8.32;;;11.00;99.90;;;;;;4992643;28;20101;-76
2024/03/18 07:20:29;;;;;;;24.40;9.60;;;11.00;99.90;;;;;;4993185;28;20073;-76
2024/03/18 07:22:55;;;;;;;22.98;8.70;;;11.00;99.90;;;;;;4992433;28;20363;-76
2024/03/18 07:25:22;;;;;;;18.00;8.80;;;11.00;99.90;;;;;;4992571;28;20026;-77
2024/03/18 07:27:48;;;;;;;23.67;9.82;;;;;;;;;;4992584;28;20545;-76
2024/03/18 07:30:17;;;;;;;28.27;9.80;;;10.90;99.90;;;;;;4992425;28;20421;-77
2024/03/18 07:32:43;;;;;;;23.75;8.27;;;10.90;99.90;;;;;;4992613;28;20389;-76
2024/03/18 07:35:14;;;;;;;31.23;8.77;;;10.90;99.90;;;;;;4993688;28;20113;-76
2024/03/18 07:37:41;;;;;;;23.63;10.02;;;10.90;99.90;;;;;;4994049;28;20386;-76
2024/03/18 07:40:11;;;;;;;28.35;9.80;;;10.90;99.90;;;;;;4993601;28;20034;-76
2024/03/18 07:42:37;;;;;;;25.85;9.80;;;10.90;99.90;;;;;;4993445;28;20018;-76
2024/03/18 07:45:03;;;;;;;24.27;9.50;;;;;;;;;;4993691;28;20019;-76
2024/03/18 07:47:29;;;;;;;26.73;9.43;;;11.00;99.90;;;;;;4994357;28;20041;-76
2024/03/18 07:49:55;;;;;;;27.63;10.43;;;11.00;99.90;;;;;;4992362;28;20422;-77
2024/03/18 07:52:21;;;;;;;23.35;9.38;;;11.00;99.90;;;;;;4994153;28;20120;-76
2024/03/18 07:54:46;;;;;;;21.50;8.20;;;11.00;99.90;;;;;;4992373;28;20022;-76
2024/03/18 07:57:13;;;;;;;22.85;9.75;;;11.00;99.90;;;;;;4992266;28;20026;-76
2024/03/18 07:59:39;;;;;;;25.52;9.18;;;11.10;99.90;;;;;;4993709;28;20031;-76
2024/03/18 08:02:05;;;;;;;35.55;10.18;;;11.10;99.90;;;;;;4992360;28;20121;-76
2024/03/18 08:04:30;;;;;;;28.38;10.32;;;11.10;99.90;;;;;;4992750;28;20054;-76
2024/03/18 08:06:56;;;;;;;31.02;10.55;;;11.10;99.90;;;;;;4993373;28;20061;-76
2024/03/18 08:09:22;;;;;;;33.13;9.55;;;11.10;99.90;;;;;;4993492;28;20026;-76
2024/03/18 08:11:48;;;;;;;29.98;10.32;;;11.20;99.90;;;;;;4993342;28;20027;-76
2024/03/18 08:14:15;;;;;;;25.48;10.18;;;11.10;99.90;;;;;;4992454;28;20141;-77
2024/03/18 08:16:41;;;;;;;34.92;10.18;;;11.20;99.90;;;;;;4993517;28;20069;-76
2024/03/18 08:19:07;;;;;;;27.25;11.63;;;11.20;99.90;;;;;;4992108;28;20125;-76
2024/03/18 08:21:34;;;;;;;23.88;9.80;;;11.30;99.90;;;;;;4993209;28;20054;-77
2024/03/18 08:24:03;;;;;;;27.90;11.30;;;11.40;99.90;;;;;;4995223;28;20545;-76
2024/03/18 08:26:30;;;;;;;29.77;10.75;;;11.50;99.90;;;;;;4995512;28;20109;-77
2024/03/18 08:28:56;;;;;;;27.05;10.40;;;11.50;99.90;;;;;;4995670;28;20117;-77
2024/03/18 08:31:21;;;;;;;21.98;9.10;;;11.60;99.90;;;;;;4996596;28;20066;-76
2024/03/18 08:33:47;;;;;;;26.13;10.25;;;11.60;99.90;;;;;;4995385;28;20033;-76
2024/03/18 08:36:13;;;;;;;27.90;10.02;;;11.80;99.90;;;;;;4995486;28;20030;-76
2024/03/18 08:38:40;;;;;;;21.42;8.77;;;11.90;99.90;;;;;;4996497;28;20076;-76
2024/03/18 08:41:07;;;;;;;20.25;9.38;;;12.20;99.90;;;;;;4995450;28;20030;-76
2024/03/18 08:43:32;;;;;;;27.73;9.93;;;12.20;99.90;;;;;;4996890;28;20026;-76
2024/03/18 08:45:58;;;;;;;25.95;9.35;;;12.40;99.90;;;;;;4996792;28;20474;-76
2024/03/18 08:48:27;;;;;;;27.92;9.65;;;12.40;99.90;;;;;;4995274;28;20117;-77
2024/03/18 08:50:53;;;;;;;26.02;10.57;;;;;;;;;;4996315;28;20386;-76
2024/03/18 08:53:19;;;;;;;24.35;9.95;;;12.50;99.90;;;;;;4996423;28;20033;-76
2024/03/18 08:55:46;;;;;;;28.17;8.43;;;12.50;99.90;;;;;;4996338;28;20474;-76
2024/03/18 08:58:12;;;;;;;28.50;8.70;;;;;;;;;;4996438;28;20036;-77
2024/03/18 09:00:38;;;;;;;28.02;8.30;;;12.20;99.90;;;;;;4995092;28;20038;-76
2024/03/18 09:03:04;;;;;;;33.72;9.90;;;12.20;99.90;;;;;;4996319;28;20412;-76
2024/03/18 09:05:31;;;;;;;31.58;9.32;;;;;;;;;;4996408;28;20026;-76
2024/03/18 09:07:58;;;;;;;29.58;10.35;;;12.10;99.90;;;;;;4996847;28;20034;-76
2024/03/18 09:10:23;;;;;;;34.08;8.80;;;12.30;99.90;;;;;;4994983;28;20022;-76
2024/03/18 09:12:49;;;;;;;33.85;10.95;;;12.40;99.90;;;;;;4996355;28;20109;-76
2024/03/18 09:15:16;;;;;;;29.88;8.48;;;12.40;99.90;;;;;;4994911;28;20054;-76
2024/03/18 09:17:44;;;;;;;33.88;9.65;;;12.60;99.90;;;;;;4994724;28;20073;-77
2024/03/18 09:20:10;;;;;;;31.73;9.05;;;12.80;99.90;;;;;;4996514;28;20459;-76
2024/03/18 09:22:36;;;;;;;29.85;9.80;;;12.80;99.90;;;;;;4994370;28;20026;-76
2024/03/18 09:25:05;;;;;;;29.02;9.52;;;12.90;99.90;;;;;;4994803;28;20470;-76
2024/03/18 09:27:31;;;;;;;29.15;8.48;;;;;;;;;;4995887;28;20072;-77
2024/03/18 09:29:57;;;;;;;25.08;8.27;;;;;;;;;;4995554;28;20026;-76
2024/03/18 09:32:22;;;;;;;26.27;7.93;;;13.20;99.90;;;;;;4994462;28;20398;-76
2024/03/18 09:34:48;;;;;;;16.60;6.53;;;13.20;99.90;;;;;;4994414;28;20027;-76
2024/03/18 09:37:15;;;;;;;19.77;7.32;;;13.30;99.90;;;;;;4995599;28;20030;-76
2024/03/18 09:39:41;;;;;;;18.90;4.93;;;;;;;;;;4995950;28;20019;-77
2024/03/18 09:42:08;;;;;;;15.57;5.28;;;13.30;99.90;;;;;;4994083;28;20042;-77
2024/03/18 09:44:35;;;;;;;20.65;6.93;;;13.40;99.90;;;;;;4995405;28;20014;-76
2024/03/18 09:47:01;;;;;;;17.85;5.00;;;13.60;99.90;;;;;;4994332;28;20453;-76
2024/03/18 09:49:27;;;;;;;18.13;5.32;;;13.70;99.90;;;;;;4995593;28;20545;-76
2024/03/18 09:51:53;;;;;;;12.88;3.92;;;13.80;99.90;;;;;;4994185;28;20018;-77
2024/03/18 09:54:21;;;;;;;16.20;4.82;;;13.90;99.90;;;;;;4995105;28;20027;-76
2024/03/18 09:56:57;;;;;;;18.80;3.95;;;14.00;99.90;;;;;;4994862;28;20027;-76
2024/03/18 09:59:23;;;;;;;10.90;4.35;;;14.20;99.90;;;;;;4995787;28;20109;-76
2024/03/18 10:01:48;;;;;;;11.55;3.40;;;14.20;99.90;;;;;;4994849;28;20105;-76
2024/03/18 10:04:14;;;;;;;11.63;2.97;;;14.20;99.90;;;;;;4993703;28;20022;-77
2024/03/18 10:06:40;;;;;;;14.18;3.25;;;14.30;99.90;;;;;;4995045;28;20026;-76
2024/03/18 10:09:06;;;;;;;7.47;3.40;;;14.50;99.90;;;;;;4993687;28;20121;-77
2024/03/18 10:11:31;;;;;;;9.48;2.33;;;14.60;99.90;;;;;;4993554;28;20029;-77
2024/03/18 10:13:57;;;;;;;12.00;2.03;;;14.60;99.90;;;;;;4993532;28;20046;-76
2024/03/18 10:16:23;;;;;;;11.07;2.05;;;14.70;99.90;;;;;;4995068;28;20022;-76
2024/03/18 10:18:49;;;;;;;12.85;2.47;;;14.70;99.90;;;;;;4995218;28;20022;-76
2024/03/18 10:21:15;;;;;;;10.30;2.00;;;14.90;99.90;;;;;;4994743;28;20022;-76
2024/03/18 10:23:50;;;;;;;6.50;1.75;;;14.90;99.90;;;;;;4993394;28;20379;-76
2024/03/18 10:26:17;;;;;;;8.80;1.95;;;14.90;99.90;;;;;;4994983;28;20037;-76
2024/03/18 10:28:44;;;;;;;5.53;0.80;;;14.70;99.90;;;;;;4993585;28;20092;-76
2024/03/18 10:31:15;;;;;;;7.70;1.15;;;14.70;99.90;;;;;;4993592;28;20021;-77
2024/03/18 10:33:45;;;;;;;7.32;0.68;;;14.70;99.90;;;;;;4993553;28;20532;-77
2024/03/18 10:36:24;;;;;;;5.55;0.63;;;14.70;99.90;;;;;;4993458;28;20022;-77
2024/03/18 10:39:08;;;;;;;13.43;0.60;;;14.70;99.90;;;;;;4994680;28;20057;-76
2024/03/18 10:41:39;;;;;;;8.32;0.43;;;14.80;99.90;;;;;;4994489;28;20434;-76
2024/03/18 10:44:17;;;;;;;6.05;0.03;;;14.90;99.90;;;;;;4993383;28;20027;-76
2024/03/18 10:46:44;;;;;;;5.85;0.20;;;15.00;99.90;;;;;;4992779;28;20026;-76
2024/03/18 10:49:18;;;;;;;6.72;0.38;;;14.90;99.90;;;;;;4994387;28;20026;-76
2024/03/18 10:51:48;;;;;;;2.58;0.15;;;14.90;99.90;;;;;;5000053;28;20023;-80
2024/03/18 10:54:15;;;;;;;4.50;0.20;;;14.80;99.90;;;;;;5003584;28;20037;-80
2024/03/18 10:56:45;;;;;;;8.82;0.40;;;14.80;99.90;;;;;;5003129;28;20026;-80
2024/03/18 10:59:16;;;;;;;6.88;0.10;;;14.90;99.90;;;;;;5003707;28;20018;-80
2024/03/18 11:01:42;;;;;;;3.65;0.50;;;15.00;99.90;;;;;;5003052;28;20091;-80
2024/03/18 11:04:22;;;;;;;5.25;0.47;;;15.00;99.90;;;;;;5002647;28;20026;-80
2024/03/18 11:06:49;;;;;;;3.20;0.10;;;15.00;99.90;;;;;;5002272;28;20035;-79
2024/03/18 11:09:19;;;;;;;3.70;0.10;;;15.10;99.90;;;;;;5003144;28;20023;-80
2024/03/18 11:11:47;;;;;;;7.55;0.95;;;15.30;99.90;;;;;;5001898;28;20027;-79
2024/03/18 11:14:24;;;;;;;7.45;0.32;;;15.50;99.90;;;;;;5004162;28;20042;-79
2024/03/18 11:16:54;;;;;;;7.63;0.47;;;15.50;99.90;;;;;;5003412;28;20018;-80
2024/03/18 11:19:25;;;;;;;6.88;0.00;;;15.90;99.90;;;;;;5003570;28;20030;-80
2024/03/18 11:22:01;;;;;;;5.38;0.00;;;15.90;99.90;;;;;;5001223;28;20026;-79
2024/03/18 11:24:32;;;;;;;3.88;0.43;;;15.90;99.90;;;;;;5000930;28;20038;-81
2024/03/18 11:27:00;;;;;;;2.78;0.32;;;15.80;99.90;;;;;;5002491;28;20037;-80
2024/03/18 11:29:39;;;;;;;6.25;0.10;;;15.70;99.90;;;;;;4998453;28;20031;-78
2024/03/18 11:32:08;;;;;;;6.05;0.20;;;15.70;99.90;;;;;;4999851;28;20031;-79
2024/03/18 11:34:36;;;;;;;9.60;0.30;;;15.90;99.90;;;;;;4999083;28;20038;-78
2024/03/18 11:37:04;;;;;;;4.25;0.00;;;16.00;99.90;;;;;;4997400;28;20023;-79
2024/03/18 11:39:30;;;;;;;1.45;0.10;;;16.20;99.90;;;;;;4998419;28;20068;-79
2024/03/18 11:42:07;;;;;;;6.13;0.10;;;16.20;99.90;;;;;;4997435;28;20433;-79
2024/03/18 11:44:33;;;;;;;3.47;0.10;;;16.20;99.90;;;;;;5002418;28;20034;-79
2024/03/18 11:47:05;;;;;;;1.90;0.00;;;16.10;99.90;;;;;;5002021;28;20014;-79
2024/03/18 11:49:33;;;;;;;16.13;0.90;;;16.30;99.90;;;;;;5001230;28;20504;-79
2024/03/18 11:51:59;;;;;;;5.25;0.20;;;16.20;99.90;;;;;;5001299;28;20041;-79
2024/03/18 11:54:25;;;;;;;2.28;0.00;;;16.10;99.90;;;;;;5003282;28;20498;-79
2024/03/18 11:56:55;;;;;;;4.45;0.15;;;16.20;99.90;;;;;;5002907;28;20359;-79
2024/03/18 11:59:22;;;;;;;4.35;0.05;;;16.40;99.90;;;;;;5005216;28;20045;-79
2024/03/18 12:01:50;;;;;;;1.23;0.00;;;16.60;99.90;;;;;;5006368;28;20030;-79
2024/03/18 12:04:19;;;;;;;5.38;0.75;;;16.80;99.90;;;;;;5004698;28;20011;-79
2024/03/18 12:06:45;;;;;;;3.45;0.47;;;16.80;99.90;;;;;;5006334;28;20033;-80
2024/03/18 12:09:12;;;;;;;4.25;0.10;;;17.00;99.90;;;;;;5004824;28;20026;-79
2024/03/18 12:11:38;;;;;;;3.33;0.00;;;17.10;99.90;;;;;;5004255;28;20066;-80
2024/03/18 12:14:04;;;;;;;2.80;0.00;;;17.30;99.90;;;;;;5005332;28;20026;-80
2024/03/18 12:16:33;;;;;;;3.30;0.20;;;17.40;99.50;;;;;;5004432;28;20394;-81
2024/03/18 12:19:09;;;;;;;1.65;0.00;;;17.40;99.60;;;;;;5005089;28;20049;-81
2024/03/18 12:21:39;;;;;;;2.58;0.00;;;17.10;99.60;;;;;;5007248;28;20042;-80
2024/03/18 12:29:37;;;;;;;8.10;0.10;;;16.90;99.90;;;;;;5005159;28;20041;-80
2024/03/18 12:32:04;;;;;;;1.73;0.00;;;17.20;99.90;;;;;;5004352;28;20022;-80
2024/03/18 12:34:30;;;;;;;1.00;0.10;;;17.80;99.90;;;;;;5005385;28;20486;-80
2024/03/18 12:36:59;;;;;;;3.55;0.20;;;17.70;99.90;;;;;;5004954;28;20073;-81
2024/03/18 12:39:27;;;;;;;2.40;0.30;;;18.10;99.90;;;;;;5004045;28;20438;-80
2024/03/18 12:41:53;;;;;;;5.55;0.28;;;18.10;99.90;;;;;;5004490;28;20476;-80
2024/03/18 12:44:19;;;;;;;5.43;0.17;;;18.10;99.50;;;;;;5006284;28;20042;-80
2024/03/18 12:46:46;;;;;;;4.47;0.00;;;17.40;98.30;;;;;;5005221;28;20161;-80
2024/03/18 12:49:11;;;;;;;3.10;0.00;;;17.30;99.10;;;;;;5005106;28;20018;-80
2024/03/18 12:51:37;;;;;;;7.65;0.63;;;;;;;;;;5004363;28;20117;-80
2024/03/18 12:54:07;;;;;;;4.32;0.35;;;17.30;98.60;;;;;;5003289;28;20022;-81
2024/03/18 12:56:33;;;;;;;3.03;0.20;;;17.40;99.70;;;;;;5004223;28;20022;-80
2024/03/18 12:58:59;;;;;;;3.03;0.15;;;17.80;97.90;;;;;;5003281;28;20050;-80